sensor_id;sensor_type;location;lat;lon;timestamp;pressure;altitude;pressure_sealevel;temperature;humidity
36932;BME280;22847;42.654;23.370;2023-03-18T00:01:53;95133.28;;;5.13;61.34
36932;BME280;22847;42.654;23.370;2023-03-18T00:04:19;94897.91;;;3.88;61.30
36932;BME280;22847;42.654;23.370;2023-03-18T00:06:44;95047.03;;;4.76;62.17
36932;BME280;22847;42.654;23.370;2023-03-18T00:09:10;94945.00;;;3.91;63.51
36932;BME280;22847;42.654;23.370;2023-03-18T00:11:38;95045.44;;;4.73;63.01
36932;BME280;22847;42.654;23.370;2023-03-18T00:14:05;94821.69;;;3.18;63.63
36932;BME280;22847;42.654;23.370;2023-03-18T00:16:30;95081.44;;;4.76;63.88
36932;BME280;22847;42.654;23.370;2023-03-18T00:18:56;95066.28;;;4.58;64.57
36932;BME280;22847;42.654;23.370;2023-03-18T00:21:21;94869.41;;;2.68;65.82
36932;BME280;22847;42.654;23.370;2023-03-18T00:23:48;95108.88;;;3.40;69.14
36932;BME280;22847;42.654;23.370;2023-03-18T00:26:15;94986.41;;;3.62;66.98
36932;BME280;22847;42.654;23.370;2023-03-18T00:28:41;94877.88;;;3.25;65.77
36932;BME280;22847;42.654;23.370;2023-03-18T00:31:09;94799.03;;;2.96;64.86
36932;BME280;22847;42.654;23.370;2023-03-18T00:33:39;94839.44;;;3.22;64.66
36932;BME280;22847;42.654;23.370;2023-03-18T00:36:06;95092.41;;;4.53;64.75
36932;BME280;22847;42.654;23.370;2023-03-18T00:38:34;95053.63;;;4.67;64.19
36932;BME280;22847;42.654;23.370;2023-03-18T00:40:59;95046.19;;;4.75;63.73
36932;BME280;22847;42.654;23.370;2023-03-18T00:43:29;95049.47;;;4.77;63.85
36932;BME280;22847;42.654;23.370;2023-03-18T00:45:58;95033.97;;;4.65;63.95
36932;BME280;22847;42.654;23.370;2023-03-18T00:48:24;95032.94;;;4.67;63.99
36932;BME280;22847;42.654;23.370;2023-03-18T00:50:50;95037.28;;;4.67;63.56
36932;BME280;22847;42.654;23.370;2023-03-18T00:53:16;95053.41;;;4.70;63.29
36932;BME280;22847;42.654;23.370;2023-03-18T00:55:42;95031.06;;;4.57;62.94
36932;BME280;22847;42.654;23.370;2023-03-18T00:58:09;95069.50;;;4.61;62.92
36932;BME280;22847;42.654;23.370;2023-03-18T01:00:39;95008.72;;;4.43;62.95
36932;BME280;22847;42.654;23.370;2023-03-18T01:03:05;94832.31;;;3.26;63.16
36932;BME280;22847;42.654;23.370;2023-03-18T01:05:33;95034.97;;;4.49;63.14
36932;BME280;22847;42.654;23.370;2023-03-18T01:07:58;95035.13;;;4.34;62.91
36932;BME280;22847;42.654;23.370;2023-03-18T01:10:25;95027.13;;;4.24;62.93
36932;BME280;22847;42.654;23.370;2023-03-18T01:12:51;95024.22;;;4.43;63.07
36932;BME280;22847;42.654;23.370;2023-03-18T01:15:19;94943.13;;;3.93;62.70
36932;BME280;22847;42.654;23.370;2023-03-18T01:17:45;94790.09;;;3.01;61.96
36932;BME280;22847;42.654;23.370;2023-03-18T01:20:13;94956.34;;;4.01;61.82
36932;BME280;22847;42.654;23.370;2023-03-18T01:22:41;95026.81;;;4.16;61.87
36932;BME280;22847;42.654;23.370;2023-03-18T01:25:08;94985.28;;;4.07;61.58
36932;BME280;22847;42.654;23.370;2023-03-18T01:27:34;95006.69;;;4.21;61.59
36932;BME280;22847;42.654;23.370;2023-03-18T01:29:59;95008.69;;;4.03;61.49
36932;BME280;22847;42.654;23.370;2023-03-18T01:32:25;95025.63;;;3.67;62.98
36932;BME280;22847;42.654;23.370;2023-03-18T01:34:50;95007.81;;;3.90;62.97
36932;BME280;22847;42.654;23.370;2023-03-18T01:37:16;95006.78;;;4.20;62.44
36932;BME280;22847;42.654;23.370;2023-03-18T01:39:41;95012.16;;;4.17;61.99
36932;BME280;22847;42.654;23.370;2023-03-18T01:42:07;94870.94;;;3.40;62.04
36932;BME280;22847;42.654;23.370;2023-03-18T01:44:32;95031.66;;;4.21;62.02
36932;BME280;22847;42.654;23.370;2023-03-18T01:46:58;94978.28;;;4.09;62.02
36932;BME280;22847;42.654;23.370;2023-03-18T01:49:27;95020.03;;;4.01;62.45
36932;BME280;22847;42.654;23.370;2023-03-18T01:52:01;95052.53;;;4.18;62.40
36932;BME280;22847;42.654;23.370;2023-03-18T01:54:31;94981.84;;;4.06;62.34
36932;BME280;22847;42.654;23.370;2023-03-18T01:56:58;94682.72;;;2.21;62.27
36932;BME280;22847;42.654;23.370;2023-03-18T01:59:27;94763.28;;;2.77;62.35
36932;BME280;22847;42.654;23.370;2023-03-18T02:02:05;94994.63;;;4.22;62.68
36932;BME280;22847;42.654;23.370;2023-03-18T02:05:01;95004.91;;;4.09;63.16
36932;BME280;22847;42.654;23.370;2023-03-18T02:07:31;95002.03;;;4.14;63.01
36932;BME280;22847;42.654;23.370;2023-03-18T02:09:59;95035.03;;;4.09;62.75
36932;BME280;22847;42.654;23.370;2023-03-18T02:12:35;94951.03;;;3.78;63.08
36932;BME280;22847;42.654;23.370;2023-03-18T02:15:06;95040.19;;;4.09;62.78
36932;BME280;22847;42.654;23.370;2023-03-18T02:17:36;95042.31;;;4.02;62.99
36932;BME280;22847;42.654;23.370;2023-03-18T02:22:49;94754.34;;;2.56;62.91
36932;BME280;22847;42.654;23.370;2023-03-18T02:27:43;94824.50;;;2.86;63.11
36932;BME280;22847;42.654;23.370;2023-03-18T02:30:20;94761.13;;;2.57;62.95
36932;BME280;22847;42.654;23.370;2023-03-18T02:32:49;94965.78;;;3.62;62.83
36932;BME280;22847;42.654;23.370;2023-03-18T02:35:15;94819.56;;;2.83;62.56
36932;BME280;22847;42.654;23.370;2023-03-18T02:37:41;94981.16;;;3.63;63.23
36932;BME280;22847;42.654;23.370;2023-03-18T02:40:23;94993.00;;;3.25;64.13
36932;BME280;22847;42.654;23.370;2023-03-18T02:42:49;95013.41;;;2.99;64.86
36932;BME280;22847;42.654;23.370;2023-03-18T02:48:01;94585.53;;;1.01;63.29
36932;BME280;22847;42.654;23.370;2023-03-18T02:50:29;95009.75;;;3.46;63.31
36932;BME280;22847;42.654;23.370;2023-03-18T02:52:54;94941.28;;;3.28;62.55
36932;BME280;22847;42.654;23.370;2023-03-18T02:55:20;94986.00;;;3.41;62.57
36932;BME280;22847;42.654;23.370;2023-03-18T02:57:46;94970.63;;;3.39;62.04
36932;BME280;22847;42.654;23.370;2023-03-18T03:00:11;94857.53;;;2.80;62.20
36932;BME280;22847;42.654;23.370;2023-03-18T03:02:37;94902.59;;;2.87;62.91
36932;BME280;22847;42.654;23.370;2023-03-18T03:05:03;94859.09;;;2.11;64.92
36932;BME280;22847;42.654;23.370;2023-03-18T03:07:29;94958.41;;;2.72;64.73
36932;BME280;22847;42.654;23.370;2023-03-18T03:09:54;94987.09;;;2.94;64.50
36932;BME280;22847;42.654;23.370;2023-03-18T03:12:21;94991.00;;;3.01;65.20
36932;BME280;22847;42.654;23.370;2023-03-18T03:14:47;94802.09;;;1.00;65.42
36932;BME280;22847;42.654;23.370;2023-03-18T03:17:12;94781.22;;;1.21;66.90
36932;BME280;22847;42.654;23.370;2023-03-18T03:19:38;95027.44;;;2.65;66.48
36932;BME280;22847;42.654;23.370;2023-03-18T03:22:03;94841.91;;;1.98;65.31
36932;BME280;22847;42.654;23.370;2023-03-18T03:24:29;94964.28;;;2.60;65.77
36932;BME280;22847;42.654;23.370;2023-03-18T03:26:55;94809.88;;;0.98;67.92
36932;BME280;22847;42.654;23.370;2023-03-18T03:29:21;94845.28;;;1.39;67.43
36932;BME280;22847;42.654;23.370;2023-03-18T03:31:46;94958.69;;;1.78;68.05
36932;BME280;22847;42.654;23.370;2023-03-18T03:34:12;94999.78;;;2.39;66.72
36932;BME280;22847;42.654;23.370;2023-03-18T03:36:37;95030.97;;;2.93;65.54
36932;BME280;22847;42.654;23.370;2023-03-18T03:39:02;94963.38;;;2.61;65.58
36932;BME280;22847;42.654;23.370;2023-03-18T03:41:28;95012.94;;;2.93;65.38
36932;BME280;22847;42.654;23.370;2023-03-18T03:43:53;95011.19;;;2.93;65.17
36932;BME280;22847;42.654;23.370;2023-03-18T03:46:19;94633.56;;;0.84;64.33
36932;BME280;22847;42.654;23.370;2023-03-18T03:48:45;95004.53;;;3.19;64.14
36932;BME280;22847;42.654;23.370;2023-03-18T03:51:12;94845.50;;;2.23;63.72
36932;BME280;22847;42.654;23.370;2023-03-18T03:53:39;94793.84;;;1.98;63.89
36932;BME280;22847;42.654;23.370;2023-03-18T03:56:06;94954.25;;;2.84;63.49
36932;BME280;22847;42.654;23.370;2023-03-18T03:58:34;94999.72;;;3.27;63.65
36932;BME280;22847;42.654;23.370;2023-03-18T04:00:59;95018.19;;;3.34;63.29
36932;BME280;22847;42.654;23.370;2023-03-18T04:03:25;94820.97;;;2.32;62.90
36932;BME280;22847;42.654;23.370;2023-03-18T04:05:51;94753.53;;;1.99;62.61
36932;BME280;22847;42.654;23.370;2023-03-18T04:08:17;95057.41;;;3.53;62.57
36932;BME280;22847;42.654;23.370;2023-03-18T04:10:42;94937.63;;;3.03;62.19
36932;BME280;22847;42.654;23.370;2023-03-18T04:13:09;94807.00;;;2.22;62.28
36932;BME280;22847;42.654;23.370;2023-03-18T04:15:34;95066.97;;;3.08;63.44
36932;BME280;22847;42.654;23.370;2023-03-18T04:18:00;94624.47;;;0.79;62.71
36932;BME280;22847;42.654;23.370;2023-03-18T04:20:32;95043.41;;;2.56;64.71
36932;BME280;22847;42.654;23.370;2023-03-18T04:22:58;95064.94;;;2.55;65.22
36932;BME280;22847;42.654;23.370;2023-03-18T04:25:23;95015.00;;;2.58;64.30
36932;BME280;22847;42.654;23.370;2023-03-18T04:27:49;95031.63;;;2.52;63.82
36932;BME280;22847;42.654;23.370;2023-03-18T04:30:16;95046.56;;;3.20;62.96
36932;BME280;22847;42.654;23.370;2023-03-18T04:32:42;95088.94;;;2.40;65.13
36932;BME280;22847;42.654;23.370;2023-03-18T04:35:07;95059.25;;;2.64;65.16
36932;BME280;22847;42.654;23.370;2023-03-18T04:37:33;95052.41;;;2.79;64.28
36932;BME280;22847;42.654;23.370;2023-03-18T04:40:00;95022.53;;;2.91;63.77
36932;BME280;22847;42.654;23.370;2023-03-18T04:42:26;94866.81;;;2.11;63.00
36932;BME280;22847;42.654;23.370;2023-03-18T04:44:51;94840.88;;;2.00;62.77
36932;BME280;22847;42.654;23.370;2023-03-18T04:47:17;95044.44;;;3.26;62.67
36932;BME280;22847;42.654;23.370;2023-03-18T04:49:43;95038.38;;;3.27;62.40
36932;BME280;22847;42.654;23.370;2023-03-18T04:52:09;95064.78;;;3.31;63.17
36932;BME280;22847;42.654;23.370;2023-03-18T04:54:34;95036.44;;;3.17;63.07
36932;BME280;22847;42.654;23.370;2023-03-18T04:57:01;95061.94;;;3.35;63.54
36932;BME280;22847;42.654;23.370;2023-03-18T04:59:27;95093.91;;;3.03;64.34
36932;BME280;22847;42.654;23.370;2023-03-18T05:01:52;95065.88;;;3.27;64.44
36932;BME280;22847;42.654;23.370;2023-03-18T05:04:18;95068.53;;;2.97;64.55
36932;BME280;22847;42.654;23.370;2023-03-18T05:06:43;95078.78;;;3.27;64.93
36932;BME280;22847;42.654;23.370;2023-03-18T05:09:09;94801.16;;;1.76;64.36
36932;BME280;22847;42.654;23.370;2023-03-18T05:11:34;95056.84;;;3.48;64.24
36932;BME280;22847;42.654;23.370;2023-03-18T05:14:00;95094.25;;;3.69;64.25
36932;BME280;22847;42.654;23.370;2023-03-18T05:16:26;95056.91;;;4.30;62.03
36932;BME280;22847;42.654;23.370;2023-03-18T05:18:51;95022.31;;;4.05;61.41
36932;BME280;22847;42.654;23.370;2023-03-18T05:21:17;95054.84;;;4.35;60.85
36932;BME280;22847;42.654;23.370;2023-03-18T05:23:42;95049.19;;;3.75;62.89
36932;BME280;22847;42.654;23.370;2023-03-18T05:26:08;94979.81;;;3.43;62.39
36932;BME280;22847;42.654;23.370;2023-03-18T05:28:35;94992.41;;;3.62;62.21
36932;BME280;22847;42.654;23.370;2023-03-18T05:31:02;95043.94;;;4.17;61.84
36932;BME280;22847;42.654;23.370;2023-03-18T05:33:28;95030.06;;;4.05;61.41
36932;BME280;22847;42.654;23.370;2023-03-18T05:35:53;94817.91;;;2.82;60.59
36932;BME280;22847;42.654;23.370;2023-03-18T05:38:19;95053.78;;;4.25;60.17
36932;BME280;22847;42.654;23.370;2023-03-18T05:40:44;95033.03;;;4.26;60.01
36932;BME280;22847;42.654;23.370;2023-03-18T05:43:10;95057.97;;;4.13;60.82
36932;BME280;22847;42.654;23.370;2023-03-18T05:45:36;94920.81;;;2.25;63.36
36932;BME280;22847;42.654;23.370;2023-03-18T05:48:02;95089.00;;;2.84;64.66
36932;BME280;22847;42.654;23.370;2023-03-18T05:52:54;95077.81;;;8.24;49.92
36932;BME280;22847;42.654;23.370;2023-03-18T05:55:20;95047.09;;;10.46;42.78
36932;BME280;22847;42.654;23.370;2023-03-18T05:57:46;95003.41;;;11.35;39.72
36932;BME280;22847;42.654;23.370;2023-03-18T06:00:13;95087.72;;;13.55;36.54
36932;BME280;22847;42.654;23.370;2023-03-18T06:02:40;95077.31;;;15.72;32.80
36932;BME280;22847;42.654;23.370;2023-03-18T06:05:06;95049.69;;;13.77;34.50
36932;BME280;22847;42.654;23.370;2023-03-18T06:07:31;95039.94;;;12.37;36.90
36932;BME280;22847;42.654;23.370;2023-03-18T06:09:57;95024.41;;;13.24;35.98
36932;BME280;22847;42.654;23.370;2023-03-18T06:12:22;95039.25;;;14.19;34.69
36932;BME280;22847;42.654;23.370;2023-03-18T06:14:51;95036.16;;;14.23;34.23
36932;BME280;22847;42.654;23.370;2023-03-18T06:17:18;95040.19;;;14.10;34.95
36932;BME280;22847;42.654;23.370;2023-03-18T06:19:44;95059.03;;;13.79;35.59
36932;BME280;22847;42.654;23.370;2023-03-18T06:22:10;95046.88;;;12.91;36.89
36932;BME280;22847;42.654;23.370;2023-03-18T06:24:35;95059.53;;;12.51;38.37
36932;BME280;22847;42.654;23.370;2023-03-18T06:27:04;95039.25;;;12.53;39.30
36932;BME280;22847;42.654;23.370;2023-03-18T06:29:29;95051.06;;;12.57;39.67
36932;BME280;22847;42.654;23.370;2023-03-18T06:31:55;95038.19;;;12.73;39.14
36932;BME280;22847;42.654;23.370;2023-03-18T06:34:23;95023.06;;;13.03;38.44
36932;BME280;22847;42.654;23.370;2023-03-18T06:36:51;95064.59;;;13.51;38.67
36932;BME280;22847;42.654;23.370;2023-03-18T06:39:18;95045.09;;;13.53;38.12
36932;BME280;22847;42.654;23.370;2023-03-18T06:41:44;94832.94;;;12.50;37.64
36932;BME280;22847;42.654;23.370;2023-03-18T06:44:09;95027.72;;;14.04;36.37
36932;BME280;22847;42.654;23.370;2023-03-18T06:46:35;94991.84;;;13.45;36.51
36932;BME280;22847;42.654;23.370;2023-03-18T06:49:01;94987.16;;;13.56;36.72
36932;BME280;22847;42.654;23.370;2023-03-18T06:51:27;94846.94;;;12.67;37.02
36932;BME280;22847;42.654;23.370;2023-03-18T06:53:52;95029.28;;;13.89;36.97
36932;BME280;22847;42.654;23.370;2023-03-18T06:56:18;95045.09;;;13.79;36.97
36932;BME280;22847;42.654;23.370;2023-03-18T06:58:44;95002.34;;;13.78;37.34
36932;BME280;22847;42.654;23.370;2023-03-18T07:01:10;94949.09;;;13.44;36.88
36932;BME280;22847;42.654;23.370;2023-03-18T07:03:37;95004.19;;;13.60;37.12
36932;BME280;22847;42.654;23.370;2023-03-18T07:06:03;95007.75;;;13.77;37.17
36932;BME280;22847;42.654;23.370;2023-03-18T07:08:28;95039.53;;;14.08;37.22
36932;BME280;22847;42.654;23.370;2023-03-18T07:10:54;94993.88;;;14.26;36.64
36932;BME280;22847;42.654;23.370;2023-03-18T07:13:20;95054.97;;;14.19;36.15
36932;BME280;22847;42.654;23.370;2023-03-18T07:15:45;95015.03;;;13.65;37.88
36932;BME280;22847;42.654;23.370;2023-03-18T07:18:12;94845.88;;;12.51;38.74
36932;BME280;22847;42.654;23.370;2023-03-18T07:20:38;95065.41;;;13.77;37.66
36932;BME280;22847;42.654;23.370;2023-03-18T07:23:04;95029.41;;;13.87;37.79
36932;BME280;22847;42.654;23.370;2023-03-18T07:25:30;94856.56;;;13.10;37.55
36932;BME280;22847;42.654;23.370;2023-03-18T07:27:57;94823.00;;;12.53;37.83
36932;BME280;22847;42.654;23.370;2023-03-18T07:30:24;95007.69;;;13.43;39.10
36932;BME280;22847;42.654;23.370;2023-03-18T07:32:51;95029.38;;;13.27;39.84
36932;BME280;22847;42.654;23.370;2023-03-18T07:35:16;94917.75;;;12.47;39.97
36932;BME280;22847;42.654;23.370;2023-03-18T07:37:42;95032.69;;;13.37;40.54
36932;BME280;22847;42.654;23.370;2023-03-18T07:40:08;95042.03;;;13.14;39.93
36932;BME280;22847;42.654;23.370;2023-03-18T07:42:36;95014.63;;;13.78;39.34
36932;BME280;22847;42.654;23.370;2023-03-18T07:45:02;94876.09;;;12.72;39.53
36932;BME280;22847;42.654;23.370;2023-03-18T07:47:28;94985.06;;;13.94;39.04
36932;BME280;22847;42.654;23.370;2023-03-18T07:49:53;95013.00;;;14.53;38.75
36932;BME280;22847;42.654;23.370;2023-03-18T07:52:19;95023.06;;;14.73;37.55
36932;BME280;22847;42.654;23.370;2023-03-18T07:54:44;95015.53;;;13.69;39.02
36932;BME280;22847;42.654;23.370;2023-03-18T07:57:10;95023.38;;;13.61;39.87
36932;BME280;22847;42.654;23.370;2023-03-18T07:59:35;95034.56;;;13.45;40.30
36932;BME280;22847;42.654;23.370;2023-03-18T08:02:02;95034.34;;;13.38;40.64
36932;BME280;22847;42.654;23.370;2023-03-18T08:04:30;95043.19;;;13.20;40.69
36932;BME280;22847;42.654;23.370;2023-03-18T08:06:56;95032.25;;;13.07;41.13
36932;BME280;22847;42.654;23.370;2023-03-18T08:09:22;94996.44;;;13.25;40.50
36932;BME280;22847;42.654;23.370;2023-03-18T08:11:47;95039.28;;;13.93;39.88
36932;BME280;22847;42.654;23.370;2023-03-18T08:14:12;95045.75;;;13.73;39.72
36932;BME280;22847;42.654;23.370;2023-03-18T08:16:38;95030.47;;;13.68;40.19
36932;BME280;22847;42.654;23.370;2023-03-18T08:19:03;94996.69;;;14.33;38.92
36932;BME280;22847;42.654;23.370;2023-03-18T08:21:29;95023.88;;;14.32;38.52
36932;BME280;22847;42.654;23.370;2023-03-18T08:23:54;94944.66;;;13.70;38.61
36932;BME280;22847;42.654;23.370;2023-03-18T08:26:21;95070.03;;;12.86;40.88
36932;BME280;22847;42.654;23.370;2023-03-18T08:28:47;94980.31;;;13.12;40.24
36932;BME280;22847;42.654;23.370;2023-03-18T08:31:12;95065.50;;;13.93;39.83
36932;BME280;22847;42.654;23.370;2023-03-18T08:33:38;95022.84;;;14.17;39.55
36932;BME280;22847;42.654;23.370;2023-03-18T08:36:04;95041.25;;;14.67;38.53
36932;BME280;22847;42.654;23.370;2023-03-18T08:38:30;95036.19;;;14.82;38.42
36932;BME280;22847;42.654;23.370;2023-03-18T08:40:56;94944.16;;;13.67;38.74
36932;BME280;22847;42.654;23.370;2023-03-18T08:43:22;94993.53;;;13.88;38.67
36932;BME280;22847;42.654;23.370;2023-03-18T08:45:54;94971.94;;;13.34;39.70
36932;BME280;22847;42.654;23.370;2023-03-18T08:48:21;94981.34;;;14.04;38.50
36932;BME280;22847;42.654;23.370;2023-03-18T08:50:47;94889.63;;;13.70;39.59
36932;BME280;22847;42.654;23.370;2023-03-18T08:53:14;95041.59;;;14.72;38.30
36932;BME280;22847;42.654;23.370;2023-03-18T08:55:40;94878.22;;;14.54;38.01
36932;BME280;22847;42.654;23.370;2023-03-18T08:58:06;95013.25;;;15.65;36.73
36932;BME280;22847;42.654;23.370;2023-03-18T09:00:37;95055.78;;;16.39;36.06
36932;BME280;22847;42.654;23.370;2023-03-18T09:03:03;95031.47;;;16.37;35.65
36932;BME280;22847;42.654;23.370;2023-03-18T09:05:29;94801.41;;;14.84;35.04
36932;BME280;22847;42.654;23.370;2023-03-18T09:07:56;95032.75;;;16.41;35.21
36932;BME280;22847;42.654;23.370;2023-03-18T09:10:22;95038.94;;;16.95;34.56
36932;BME280;22847;42.654;23.370;2023-03-18T09:12:48;94866.50;;;16.07;33.79
36932;BME280;22847;42.654;23.370;2023-03-18T09:15:14;95046.34;;;16.14;32.96
36932;BME280;22847;42.654;23.370;2023-03-18T09:17:40;95037.00;;;16.50;32.12
36932;BME280;22847;42.654;23.370;2023-03-18T09:20:08;95033.59;;;17.04;31.47
36932;BME280;22847;42.654;23.370;2023-03-18T09:22:34;95039.56;;;17.20;31.56
36932;BME280;22847;42.654;23.370;2023-03-18T09:25:00;94887.25;;;16.56;32.32
36932;BME280;22847;42.654;23.370;2023-03-18T09:27:25;95035.63;;;17.24;31.76
36932;BME280;22847;42.654;23.370;2023-03-18T09:29:51;95033.25;;;15.90;31.71
36932;BME280;22847;42.654;23.370;2023-03-18T09:32:17;95075.91;;;16.32;32.46
36932;BME280;22847;42.654;23.370;2023-03-18T09:34:42;95020.97;;;14.01;32.43
36932;BME280;22847;42.654;23.370;2023-03-18T09:37:09;95032.00;;;15.21;32.28
36932;BME280;22847;42.654;23.370;2023-03-18T09:39:35;94843.84;;;14.23;32.55
36932;BME280;22847;42.654;23.370;2023-03-18T09:45:00;95024.09;;;15.70;32.55
36932;BME280;22847;42.654;23.370;2023-03-18T09:50:13;95027.38;;;14.99;32.78
36932;BME280;22847;42.654;23.370;2023-03-18T09:52:49;94880.50;;;14.57;31.84
36932;BME280;22847;42.654;23.370;2023-03-18T09:57:45;95030.50;;;15.59;31.61
36932;BME280;22847;42.654;23.370;2023-03-18T10:02:46;95020.44;;;13.90;33.27
36932;BME280;22847;42.654;23.370;2023-03-18T10:05:17;95024.00;;;14.56;34.27
36932;BME280;22847;42.654;23.370;2023-03-18T10:07:47;94855.31;;;13.56;33.58
36932;BME280;22847;42.654;23.370;2023-03-18T10:10:29;95025.88;;;14.96;34.98
36932;BME280;22847;42.654;23.370;2023-03-18T10:13:24;95031.03;;;14.14;32.76
36932;BME280;22847;42.654;23.370;2023-03-18T10:15:54;95019.13;;;14.78;32.77
36932;BME280;22847;42.654;23.370;2023-03-18T10:18:30;95002.31;;;13.70;31.97
36932;BME280;22847;42.654;23.370;2023-03-18T10:26:35;95025.09;;;14.04;31.08
36932;BME280;22847;42.654;23.370;2023-03-18T10:34:19;94998.97;;;13.34;33.09
36932;BME280;22847;42.654;23.370;2023-03-18T10:39:33;94874.75;;;11.52;32.58
36932;BME280;22847;42.654;23.370;2023-03-18T10:42:13;95024.94;;;13.79;31.91
36932;BME280;22847;42.654;23.370;2023-03-18T10:44:40;95005.34;;;14.67;31.90
36932;BME280;22847;42.654;23.370;2023-03-18T10:47:13;94851.34;;;11.60;31.86
36932;BME280;22847;42.654;23.370;2023-03-18T10:49:47;95014.25;;;13.47;31.28
36932;BME280;22847;42.654;23.370;2023-03-18T10:52:37;94954.13;;;14.47;30.07
36932;BME280;22847;42.654;23.370;2023-03-18T10:55:13;94964.66;;;14.96;29.21
36932;BME280;22847;42.654;23.370;2023-03-18T10:57:39;94998.66;;;15.62;28.80
36932;BME280;22847;42.654;23.370;2023-03-18T11:00:31;95008.31;;;15.45;28.15
36932;BME280;22847;42.654;23.370;2023-03-18T11:02:57;95004.53;;;14.91;28.21
36932;BME280;22847;42.654;23.370;2023-03-18T11:05:29;94881.97;;;12.91;28.73
36932;BME280;22847;42.654;23.370;2023-03-18T11:07:57;94842.66;;;12.40;29.08
36932;BME280;22847;42.654;23.370;2023-03-18T11:10:32;95049.84;;;12.96;29.76
36932;BME280;22847;42.654;23.370;2023-03-18T11:12:59;94853.25;;;11.85;31.03
36932;BME280;22847;42.654;23.370;2023-03-18T11:15:36;94992.47;;;13.03;31.17
36932;BME280;22847;42.654;23.370;2023-03-18T11:18:03;95012.38;;;11.32;31.67
36932;BME280;22847;42.654;23.370;2023-03-18T11:20:35;94670.22;;;8.32;33.05
36932;BME280;22847;42.654;23.370;2023-03-18T11:23:18;94997.16;;;11.08;32.77
36932;BME280;22847;42.654;23.370;2023-03-18T11:25:51;94817.75;;;10.17;32.99
36932;BME280;22847;42.654;23.370;2023-03-18T11:28:22;94787.84;;;10.02;33.06
36932;BME280;22847;42.654;23.370;2023-03-18T11:30:54;94767.66;;;10.23;33.80
36932;BME280;22847;42.654;23.370;2023-03-18T11:33:28;94990.91;;;12.57;32.62
36932;BME280;22847;42.654;23.370;2023-03-18T11:35:58;95003.66;;;13.49;30.85
36932;BME280;22847;42.654;23.370;2023-03-18T11:38:30;95029.63;;;13.42;31.65
36932;BME280;22847;42.654;23.370;2023-03-18T11:41:16;94881.81;;;12.14;30.24
36932;BME280;22847;42.654;23.370;2023-03-18T11:46:35;94993.63;;;13.01;32.42
36932;BME280;22847;42.654;23.370;2023-03-18T11:49:02;94781.88;;;12.02;32.70
36932;BME280;22847;42.654;23.370;2023-03-18T11:56:56;94985.44;;;13.04;31.82
36932;BME280;22847;42.654;23.370;2023-03-18T11:59:29;94962.13;;;13.10;31.19
36932;BME280;22847;42.654;23.370;2023-03-18T12:07:26;94950.50;;;10.77;36.03
36932;BME280;22847;42.654;23.370;2023-03-18T12:10:17;94793.66;;;10.71;34.67
36932;BME280;22847;42.654;23.370;2023-03-18T12:20:50;94989.25;;;14.12;32.55
36932;BME280;22847;42.654;23.370;2023-03-18T12:23:54;94968.25;;;13.78;33.79
36932;BME280;22847;42.654;23.370;2023-03-18T12:45:49;94973.94;;;12.79;32.92
36932;BME280;22847;42.654;23.370;2023-03-18T12:48:32;94827.06;;;11.50;32.74
36932;BME280;22847;42.654;23.370;2023-03-18T12:51:05;94982.50;;;12.18;33.30
36932;BME280;22847;42.654;23.370;2023-03-18T12:53:35;94980.28;;;11.96;33.50
36932;BME280;22847;42.654;23.370;2023-03-18T12:56:11;94967.88;;;11.98;33.33
36932;BME280;22847;42.654;23.370;2023-03-18T12:59:04;94983.94;;;12.30;33.10
36932;BME280;22847;42.654;23.370;2023-03-18T13:01:33;94770.69;;;10.09;33.61
36932;BME280;22847;42.654;23.370;2023-03-18T13:04:04;94794.06;;;10.67;33.28
36932;BME280;22847;42.654;23.370;2023-03-18T13:06:47;94958.06;;;12.10;33.24
36932;BME280;22847;42.654;23.370;2023-03-18T13:12:40;94950.09;;;10.81;34.33
36932;BME280;22847;42.654;23.370;2023-03-18T13:17:22;94967.75;;;11.62;34.36
36932;BME280;22847;42.654;23.370;2023-03-18T13:19:49;94969.56;;;10.96;32.54
36932;BME280;22847;42.654;23.370;2023-03-18T13:27:48;94827.03;;;10.01;32.62
36932;BME280;22847;42.654;23.370;2023-03-18T13:38:40;94984.28;;;10.40;32.83
36932;BME280;22847;42.654;23.370;2023-03-18T13:47:02;94971.66;;;10.83;33.18
36932;BME280;22847;42.654;23.370;2023-03-18T13:49:30;94790.78;;;9.30;33.23
36932;BME280;22847;42.654;23.370;2023-03-18T13:52:00;94979.75;;;10.61;32.30
36932;BME280;22847;42.654;23.370;2023-03-18T13:54:35;94936.47;;;11.06;32.13
36932;BME280;22847;42.654;23.370;2023-03-18T13:57:31;94970.75;;;12.04;30.30
36932;BME280;22847;42.654;23.370;2023-03-18T14:02:44;94990.53;;;12.07;29.97
36932;BME280;22847;42.654;23.370;2023-03-18T14:14:01;94984.59;;;12.15;30.33
36932;BME280;22847;42.654;23.370;2023-03-18T14:21:32;94960.88;;;11.98;29.57
36932;BME280;22847;42.654;23.370;2023-03-18T14:24:04;94957.22;;;11.45;30.57
36932;BME280;22847;42.654;23.370;2023-03-18T14:26:34;94971.75;;;11.20;30.58
36932;BME280;22847;42.654;23.370;2023-03-18T14:34:02;94954.28;;;12.39;29.40
36932;BME280;22847;42.654;23.370;2023-03-18T14:42:03;94939.53;;;10.73;30.54
36932;BME280;22847;42.654;23.370;2023-03-18T14:44:45;94960.34;;;11.58;30.15
36932;BME280;22847;42.654;23.370;2023-03-18T14:47:22;94760.16;;;10.67;30.06
36932;BME280;22847;42.654;23.370;2023-03-18T14:49:54;94924.59;;;12.13;29.57
36932;BME280;22847;42.654;23.370;2023-03-18T14:52:31;94918.88;;;12.63;29.04
36932;BME280;22847;42.654;23.370;2023-03-18T14:55:01;94932.06;;;11.16;29.79
36932;BME280;22847;42.654;23.370;2023-03-18T14:57:29;94989.25;;;11.47;30.22
36932;BME280;22847;42.654;23.370;2023-03-18T14:59:57;94819.09;;;10.87;29.90
36932;BME280;22847;42.654;23.370;2023-03-18T15:02:32;94962.41;;;11.08;29.96
36932;BME280;22847;42.654;23.370;2023-03-18T15:04:59;94987.38;;;11.76;29.17
36932;BME280;22847;42.654;23.370;2023-03-18T15:07:37;94919.34;;;11.68;29.32
36932;BME280;22847;42.654;23.370;2023-03-18T15:10:08;94951.84;;;11.56;29.99